Terminal Aerodrome Forecast
Issued by NWS Tuscon, AZ

Home | Current Version | Previous Version | Text Only | Print | Product List | Glossary On
Versions: 1 2 3 4 5 6 7 8 9 10 11 12 13 14 15 16
000
FTUS45 KTWC 021140
TAFDUG
TAF
KDUG 021140Z 0212/0312 12006KT P6SM BKN090 OVC180
     FM021700 22006KT P6SM SCT060 SCT100
     FM022100 24009KT P6SM VCTS BKN050CB BKN090
     FM030100 35005KT P6SM SCT050 BKN100
     FM031000 VRB03KT P6SM SCT100 BKN200=

USA.gov is the U.S. government's official web portal to all federal, state and local government web resources and services.